Time;durP1;ratioP1;P1;durP2;ratioP2;P2;SDS_P1;SDS_P2;PMS_P1;PMS_P2;Temp;Humidity;BMP_temperature;BMP_pressure;BME280_temperature;BME280_humidity;BME280_pressure;Samples;Min_cycle;Max_cycle;Signal;HPM_P1;HPM_P2
2022/05/25 00:00:32;;;;;;;1.80;1.00;;;;;;;;;;5063932;28;20563;-88
2022/05/25 00:02:58;;;;;;;0.88;0.88;;;;;;;;;;5055528;28;20037;-88
2022/05/25 00:05:27;;;;;;;1.77;0.90;;;;;;;;;;5054030;28;20037;-87
2022/05/25 00:08:44;;;;;;;2.28;0.90;;;;;;;;;;5056040;28;20021;-87
2022/05/25 00:11:39;;;;;;;5.40;1.30;;;;;;;;;;5051247;28;20079;-88
2022/05/25 00:18:11;;;;;;;0.80;0.70;;;;;;;;;;5018995;28;20036;-88
2022/05/25 00:21:18;;;;;;;;;;;;;;;;;;;;;
2022/05/25 00:24:18;;;;;;;1.05;0.95;;;;;;;;;;5056659;28;20068;-87
2022/05/25 00:27:30;;;;;;;2.60;0.90;;;;;;;;;;5054193;28;20500;-87
2022/05/25 00:33:12;;;;;;;4.03;1.10;;;;;;;;;;4698352;26;20106;-87
2022/05/25 00:35:41;;;;;;;1.38;1.00;;;;;;;;;;5057269;28;20029;-87
2022/05/25 00:38:08;;;;;;;3.47;1.00;;;;;;;;;;5055413;28;20056;-87
2022/05/25 00:40:36;;;;;;;4.38;1.13;;;;;;;;;;5056279;28;20044;-88
2022/05/25 00:43:02;;;;;;;1.08;0.93;;;;;;;;;;5056822;28;20163;-88
2022/05/25 00:45:33;;;;;;;2.17;0.90;;;;;;;;;;5055882;28;20029;-87
2022/05/25 00:48:00;;;;;;;2.58;1.10;;;;;;;;;;5056120;28;20028;-88
2022/05/25 00:50:26;;;;;;;2.33;1.10;;;;;;;;;;5058377;28;20599;-89
2022/05/25 00:52:52;;;;;;;2.70;1.13;;;;;;;;;;5058154;28;20128;-89
2022/05/25 00:55:26;;;;;;;1.00;0.90;;;;;;;;;;5055211;28;20094;-87
2022/05/25 00:57:55;;;;;;;1.65;1.08;;;;;;;;;;5053882;28;20560;-87
2022/05/25 01:00:25;;;;;;;1.58;1.20;;;;;;;;;;5053955;28;20044;-87
2022/05/25 01:02:57;;;;;;;2.10;1.00;;;;;;;;;;5054971;28;20044;-86
2022/05/25 01:05:30;;;;;;;1.88;0.90;;;;;;;;;;5061624;28;20033;-88
2022/05/25 01:08:15;;;;;;;2.08;1.00;;;;;;;;;;5054872;28;20035;-88
2022/05/25 01:11:01;;;;;;;1.80;1.10;;;;;;;;;;5054537;28;20072;-88
2022/05/25 01:13:33;;;;;;;1.23;1.08;;;;;;;;;;5052847;28;20029;-88
2022/05/25 01:16:17;;;;;;;1.85;1.02;;;;;;;;;;5052025;28;20071;-87
2022/05/25 01:19:33;;;;;;;5.07;1.10;;;;;;;;;;5052852;28;20470;-88
2022/05/25 01:22:17;;;;;;;1.35;1.05;;;;;;;;;;5045068;28;20074;-88
2022/05/25 01:25:20;;;;;;;3.05;1.33;;;;;;;;;;5055867;28;20032;-88
2022/05/25 01:27:48;;;;;;;1.30;1.20;;;;;;;;;;5056189;28;20033;-87
2022/05/25 01:30:20;;;;;;;2.65;1.30;;;;;;;;;;5054843;28;20064;-87
2022/05/25 01:32:59;;;;;;;1.05;0.95;;;;;;;;;;5054784;28;20028;-88
2022/05/25 01:35:38;;;;;;;1.05;0.95;;;;;;;;;;5053943;28;20136;-88
2022/05/25 01:38:32;;;;;;;2.03;0.93;;;;;;;;;;5053966;28;20482;-88
2022/05/25 01:47:28;;;;;;;3.53;0.90;;;;;;;;;;5032437;28;20498;-87
2022/05/25 01:50:20;;;;;;;1.45;1.00;;;;;;;;;;5039254;28;20421;-88
2022/05/25 01:53:53;;;;;;;2.00;1.30;;;;;;;;;;5040961;28;20090;-89
2022/05/25 01:57:08;;;;;;;2.22;1.25;;;;;;;;;;4936913;29;20051;-88
2022/05/25 02:00:08;;;;;;;;;;;;;;;;;;4962716;28;20483;-89
2022/05/25 02:10:25;;;;;;;2.75;1.63;;;;;;;;;;4992936;28;20053;-88
2022/05/25 02:13:19;;;;;;;1.83;1.23;;;;;;;;;;4992981;28;20038;-88
2022/05/25 02:15:45;;;;;;;;;;;;;;;;;;4971179;28;20050;-87
2022/05/25 02:18:16;;;;;;;2.38;1.50;;;;;;;;;;5009323;28;19986;-88
2022/05/25 02:20:59;;;;;;;1.73;1.50;;;;;;;;;;5039481;28;20044;-88
2022/05/25 02:23:42;;;;;;;3.20;1.70;;;;;;;;;;5055691;28;20040;-88
2022/05/25 02:26:14;;;;;;;4.10;1.80;;;;;;;;;;5056181;28;20037;-87
2022/05/25 02:28:47;;;;;;;2.33;1.80;;;;;;;;;;5054599;28;20075;-87
2022/05/25 02:31:18;;;;;;;3.83;1.85;;;;;;;;;;5050767;28;20037;-87
2022/05/25 02:33:49;;;;;;;4.53;1.98;;;;;;;;;;5024244;28;20051;-87
2022/05/25 02:36:16;;;;;;;3.72;1.65;;;;;;;;;;5059010;28;20033;-88
2022/05/25 02:38:43;;;;;;;2.55;1.80;;;;;;;;;;5040682;28;20532;-88
2022/05/25 02:41:29;;;;;;;1.70;1.60;;;;;;;;;;5056876;28;20091;-87
2022/05/25 02:43:55;;;;;;;2.90;1.80;;;;;;;;;;5039439;28;20037;-88
2022/05/25 02:46:21;;;;;;;4.85;1.73;;;;;;;;;;5039821;28;20036;-87
2022/05/25 02:48:46;;;;;;;3.25;1.90;;;;;;;;;;5057702;28;20037;-87
2022/05/25 02:51:11;;;;;;;2.10;1.60;;;;;;;;;;5038862;28;20037;-87
2022/05/25 02:53:37;;;;;;;2.78;1.75;;;;;;;;;;5046390;28;20094;-88
2022/05/25 02:56:03;;;;;;;2.38;1.50;;;;;;;;;;5058729;28;20047;-89
2022/05/25 02:58:28;;;;;;;5.05;1.83;;;;;;;;;;5057167;28;20047;-88
2022/05/25 03:00:54;;;;;;;1.70;1.60;;;;;;;;;;5058924;28;20036;-87
2022/05/25 03:03:20;;;;;;;2.97;1.70;;;;;;;;;;5056805;28;20037;-88
2022/05/25 03:05:46;;;;;;;2.25;1.50;;;;;;;;;;5057891;28;20041;-86
2022/05/25 03:08:11;;;;;;;1.73;1.40;;;;;;;;;;5040611;28;20029;-88
2022/05/25 03:10:37;;;;;;;3.22;1.50;;;;;;;;;;5058138;28;20114;-88
2022/05/25 03:13:07;;;;;;;2.45;1.70;;;;;;;;;;5058321;28;20500;-89
2022/05/25 03:15:33;;;;;;;2.30;1.67;;;;;;;;;;5057640;28;20075;-86
2022/05/25 03:17:59;;;;;;;3.30;1.80;;;;;;;;;;5038739;28;20037;-87
2022/05/25 03:20:25;;;;;;;2.83;1.60;;;;;;;;;;5057139;28;20043;-88
2022/05/25 03:22:50;;;;;;;1.77;1.50;;;;;;;;;;5057297;28;20062;-88
2022/05/25 03:25:16;;;;;;;2.45;1.70;;;;;;;;;;5039108;28;20043;-88
2022/05/25 03:27:43;;;;;;;2.00;1.80;;;;;;;;;;5055761;28;20031;-87
2022/05/25 03:30:10;;;;;;;5.40;1.52;;;;;;;;;;5055992;28;20086;-88
2022/05/25 03:32:35;;;;;;;3.28;1.75;;;;;;;;;;5037443;28;20040;-87
2022/05/25 03:35:02;;;;;;;3.95;1.70;;;;;;;;;;5036503;28;20116;-89
2022/05/25 03:37:27;;;;;;;2.10;1.70;;;;;;;;;;5055388;28;20032;-86
2022/05/25 03:39:53;;;;;;;3.17;1.90;;;;;;;;;;5065322;28;20417;-88
2022/05/25 03:42:19;;;;;;;2.25;1.73;;;;;;;;;;5056380;28;20045;-88
2022/05/25 03:44:45;;;;;;;2.45;1.98;;;;;;;;;;5057029;28;20040;-89
2022/05/25 03:47:11;;;;;;;2.42;1.88;;;;;;;;;;5058168;28;20039;-88
2022/05/25 03:49:36;;;;;;;3.20;2.10;;;;;;;;;;5027653;28;20128;-87
2022/05/25 03:52:04;;;;;;;2.35;1.75;;;;;;;;;;5038993;28;20378;-89
2022/05/25 03:54:30;;;;;;;3.22;1.70;;;;;;;;;;5055748;28;20174;-89
2022/05/25 03:56:56;;;;;;;3.70;1.88;;;;;;;;;;5039504;28;20021;-88
2022/05/25 03:59:22;;;;;;;2.15;1.80;;;;;;;;;;5057368;28;20446;-88
2022/05/25 04:01:47;;;;;;;3.33;1.88;;;;;;;;;;5055686;28;20033;-89
2022/05/25 04:04:13;;;;;;;2.83;1.80;;;;;;;;;;5057454;28;20116;-90
2022/05/25 04:06:38;;;;;;;1.90;1.70;;;;;;;;;;5057633;28;20040;-88
2022/05/25 04:09:05;;;;;;;3.40;1.90;;;;;;;;;;5057184;28;20066;-88
2022/05/25 04:18:01;;;;;;;3.85;2.40;;;;;;;;;;5034153;28;20037;-89
2022/05/25 04:21:07;;;;;;;2.58;2.20;;;;;;;;;;5080585;22;21894;-88
2022/05/25 04:23:43;;;;;;;3.65;2.10;;;;;;;;;;5056241;28;20104;-88
2022/05/25 04:26:09;;;;;;;5.20;2.60;;;;;;;;;;5056648;28;20036;-87
2022/05/25 04:28:35;;;;;;;4.07;2.10;;;;;;;;;;5058445;28;20036;-87
2022/05/25 04:31:01;;;;;;;4.80;2.70;;;;;;;;;;5057980;28;20032;-88
2022/05/25 04:33:35;;;;;;;4.45;2.83;;;;;;;;;;5057970;28;20033;-88
2022/05/25 04:36:10;;;;;;;5.70;2.35;;;;;;;;;;5057429;28;20037;-87
2022/05/25 04:38:38;;;;;;;5.07;2.20;;;;;;;;;;5039522;28;20044;-88
2022/05/25 04:41:04;;;;;;;3.13;2.25;;;;;;;;;;5059358;28;20057;-87
2022/05/25 04:43:29;;;;;;;2.47;2.13;;;;;;;;;;5061922;28;20040;-88
2022/05/25 04:46:12;;;;;;;3.58;2.45;;;;;;;;;;5037964;28;20057;-88
2022/05/25 04:48:44;;;;;;;3.30;2.42;;;;;;;;;;5044403;28;20045;-88
2022/05/25 04:51:14;;;;;;;4.28;2.60;;;;;;;;;;5042071;28;20105;-88
2022/05/25 04:54:09;;;;;;;4.00;2.38;;;;;;;;;;5021629;28;20504;-87
2022/05/25 04:59:30;;;;;;;1.75;1.40;;;;;;;;;;5056958;28;20056;-88
2022/05/25 05:01:58;;;;;;;9.20;5.82;;;;;;;;;;5049226;28;20527;-88
2022/05/25 05:04:26;;;;;;;3.40;1.90;;;;;;;;;;5049756;28;20048;-86
2022/05/25 05:06:51;;;;;;;6.22;2.00;;;;;;;;;;5058981;28;20037;-87
2022/05/25 05:09:17;;;;;;;4.18;2.03;;;;;;;;;;5038129;28;20039;-87
2022/05/25 05:11:44;;;;;;;4.45;3.55;;;;;;;;;;5021816;28;20041;-88
2022/05/25 05:14:09;;;;;;;4.85;3.53;;;;;;;;;;5058829;28;20524;-88
2022/05/25 05:16:34;;;;;;;4.53;2.90;;;;;;;;;;5057035;28;20029;-87
2022/05/25 05:19:12;;;;;;;4.00;1.88;;;;;;;;;;5037921;28;20027;-89
2022/05/25 05:22:00;;;;;;;3.33;2.30;;;;;;;;;;5037341;28;20032;-88
2022/05/25 05:24:30;;;;;;;3.78;2.08;;;;;;;;;;5055029;28;20033;-88
2022/05/25 05:26:56;;;;;;;2.65;1.90;;;;;;;;;;5037921;28;20033;-87
2022/05/25 05:29:28;;;;;;;3.15;2.10;;;;;;;;;;5055352;28;20055;-89
2022/05/25 05:31:53;;;;;;;2.60;2.20;;;;;;;;;;5052806;22;20045;-82
2022/05/25 05:34:19;;;;;;;6.03;4.40;;;;;;;;;;5035956;28;20025;-82
2022/05/25 05:37:06;;;;;;;4.80;3.05;;;;;;;;;;5054595;28;20056;-83
2022/05/25 05:39:37;;;;;;;2.38;1.90;;;;;;;;;;5055160;28;20033;-82
2022/05/25 05:42:06;;;;;;;3.97;1.80;;;;;;;;;;5055081;28;20098;-82
2022/05/25 05:45:02;;;;;;;2.53;1.90;;;;;;;;;;5019512;28;20021;-82
2022/05/25 05:47:36;;;;;;;2.70;2.20;;;;;;;;;;5054578;28;20037;-82
2022/05/25 05:50:06;;;;;;;4.75;3.25;;;;;;;;;;5055819;28;20041;-82
2022/05/25 05:52:34;;;;;;;8.88;5.35;;;;;;;;;;5058132;28;20084;-82
2022/05/25 05:54:59;;;;;;;15.85;11.10;;;;;;;;;;5040340;28;20463;-82
2022/05/25 05:57:25;;;;;;;2.83;2.17;;;;;;;;;;5023670;28;20104;-82
2022/05/25 05:59:51;;;;;;;2.38;1.73;;;;;;;;;;5057927;28;20654;-82
2022/05/25 06:02:16;;;;;;;3.75;1.90;;;;;;;;;;5057621;28;20052;-82
2022/05/25 06:04:42;;;;;;;2.20;1.58;;;;;;;;;;5057887;28;20037;-82
2022/05/25 06:07:07;;;;;;;2.55;1.63;;;;;;;;;;5057893;28;20493;-82
2022/05/25 06:09:32;;;;;;;2.72;1.88;;;;;;;;;;5057982;28;20041;-82
2022/05/25 06:11:58;;;;;;;3.28;1.90;;;;;;;;;;5057506;28;20091;-81
2022/05/25 06:14:23;;;;;;;1.88;1.60;;;;;;;;;;5039675;28;20043;-82
2022/05/25 06:19:37;;;;;;;2.83;1.80;;;;;;;;;;5057710;28;20508;-83
2022/05/25 06:22:05;;;;;;;3.95;1.42;;;;;;;;;;5057541;28;20044;-82
2022/05/25 06:24:36;;;;;;;5.22;1.85;;;;;;;;;;5039377;28;20375;-83
2022/05/25 06:27:01;;;;;;;3.92;1.50;;;;;;;;;;5039571;28;20041;-83
2022/05/25 06:29:27;;;;;;;2.42;1.58;;;;;;;;;;5039894;28;20040;-84
2022/05/25 06:31:52;;;;;;;3.30;1.40;;;;;;;;;;5057348;28;20059;-83
2022/05/25 06:34:18;;;;;;;2.50;1.40;;;;;;;;;;5056740;28;20098;-83
2022/05/25 06:36:47;;;;;;;2.72;1.65;;;;;;;;;;5056611;28;20037;-83
2022/05/25 06:39:12;;;;;;;2.72;1.50;;;;;;;;;;5057737;28;20131;-82
2022/05/25 06:41:38;;;;;;;3.72;1.52;;;;;;;;;;5056635;28;20057;-82
2022/05/25 06:44:04;;;;;;;2.28;1.20;;;;;;;;;;5033770;28;20087;-82
2022/05/25 06:46:29;;;;;;;4.90;1.30;;;;;;;;;;5035193;28;20041;-82
2022/05/25 06:48:58;;;;;;;1.95;1.30;;;;;;;;;;5036723;28;20079;-83
2022/05/25 06:51:27;;;;;;;3.42;1.30;;;;;;;;;;5036229;28;20037;-82
2022/05/25 06:53:53;;;;;;;3.65;1.70;;;;;;;;;;5035022;28;20044;-82
2022/05/25 06:56:19;;;;;;;1.27;1.10;;;;;;;;;;5034515;28;20045;-82
2022/05/25 06:58:45;;;;;;;1.73;1.10;;;;;;;;;;5035128;28;20132;-83
2022/05/25 07:01:11;;;;;;;1.48;1.10;;;;;;;;;;5035040;28;20064;-83
2022/05/25 07:03:38;;;;;;;1.77;1.08;;;;;;;;;;5035927;28;20037;-84
2022/05/25 07:06:05;;;;;;;2.17;1.30;;;;;;;;;;5036184;28;20042;-83
2022/05/25 07:08:31;;;;;;;1.40;1.00;;;;;;;;;;5034116;28;20025;-81
2022/05/25 07:10:57;;;;;;;1.27;1.10;;;;;;;;;;5035163;28;20037;-84
2022/05/25 07:13:22;;;;;;;1.00;0.90;;;;;;;;;;5035812;28;20030;-85
2022/05/25 07:15:49;;;;;;;1.80;0.98;;;;;;;;;;5035077;28;20029;-85
2022/05/25 07:18:14;;;;;;;2.67;0.93;;;;;;;;;;5034396;28;20033;-85
2022/05/25 07:20:40;;;;;;;2.03;0.80;;;;;;;;;;5037203;28;20065;-86
2022/05/25 07:23:06;;;;;;;3.80;0.85;;;;;;;;;;5037294;28;20041;-85
2022/05/25 07:25:31;;;;;;;2.97;1.13;;;;;;;;;;5036917;28;20033;-85
2022/05/25 07:27:56;;;;;;;1.83;1.00;;;;;;;;;;5036717;28;20081;-85
2022/05/25 07:30:22;;;;;;;2.05;1.10;;;;;;;;;;5036811;28;20021;-85
2022/05/25 07:32:47;;;;;;;2.35;1.27;;;;;;;;;;5037120;28;20037;-85
2022/05/25 07:35:16;;;;;;;1.90;1.15;;;;;;;;;;5036725;28;20034;-85
2022/05/25 07:37:45;;;;;;;1.23;0.80;;;;;;;;;;5037163;28;20118;-85
2022/05/25 07:40:25;;;;;;;1.30;0.85;;;;;;;;;;5036876;28;20041;-85
2022/05/25 07:42:56;;;;;;;0.98;0.70;;;;;;;;;;5037119;28;20033;-85
2022/05/25 07:45:23;;;;;;;2.78;0.90;;;;;;;;;;5036538;28;20038;-85
2022/05/25 07:47:51;;;;;;;4.60;0.70;;;;;;;;;;5036192;28;20029;-85
2022/05/25 07:50:17;;;;;;;1.67;0.88;;;;;;;;;;5036846;28;20033;-85
2022/05/25 07:52:42;;;;;;;1.10;0.80;;;;;;;;;;5036824;28;20463;-85
2022/05/25 07:55:11;;;;;;;1.77;0.90;;;;;;;;;;5037226;28;20041;-85
2022/05/25 07:57:37;;;;;;;1.20;0.90;;;;;;;;;;5036583;28;20033;-84
2022/05/25 08:00:05;;;;;;;2.15;0.77;;;;;;;;;;5035769;28;20025;-85
2022/05/25 08:08:13;;;;;;;1.27;1.05;;;;;;;;;;5035985;28;20105;-85
2022/05/25 08:10:41;;;;;;;2.25;1.38;;;;;;;;;;5035587;28;20029;-84
2022/05/25 08:13:07;;;;;;;2.60;1.50;;;;;;;;;;5035731;28;20041;-85
2022/05/25 08:15:33;;;;;;;2.53;1.60;;;;;;;;;;5035945;28;20029;-85
2022/05/25 08:18:00;;;;;;;2.92;1.70;;;;;;;;;;5035858;28;20049;-85
2022/05/25 08:20:25;;;;;;;2.38;1.90;;;;;;;;;;5035778;28;20041;-85
2022/05/25 08:22:51;;;;;;;2.83;2.05;;;;;;;;;;5035774;28;20025;-85
2022/05/25 08:25:18;;;;;;;2.42;1.60;;;;;;;;;;5033948;28;20037;-84
2022/05/25 08:27:44;;;;;;;1.88;1.50;;;;;;;;;;5034350;28;20132;-85
2022/05/25 08:30:13;;;;;;;3.05;1.80;;;;;;;;;;5035561;28;20060;-85
2022/05/25 08:32:38;;;;;;;6.28;2.10;;;;;;;;;;5035861;28;20055;-85
2022/05/25 08:35:05;;;;;;;4.47;1.52;;;;;;;;;;5035543;28;20037;-85
2022/05/25 08:37:30;;;;;;;3.42;1.67;;;;;;;;;;5035583;28;20060;-85
2022/05/25 08:39:56;;;;;;;1.90;1.38;;;;;;;;;;5035759;28;20398;-85
2022/05/25 08:42:24;;;;;;;2.33;1.30;;;;;;;;;;5036830;28;20091;-85
2022/05/25 08:44:53;;;;;;;4.93;3.53;;;;;;;;;;5035470;28;20033;-85
2022/05/25 08:47:18;;;;;;;5.68;4.45;;;;;;;;;;5034017;28;20208;-84
2022/05/25 08:49:48;;;;;;;5.15;2.03;;;;;;;;;;5035147;28;20033;-85
2022/05/25 08:52:22;;;;;;;2.97;2.40;;;;;;;;;;5035300;28;20064;-85
2022/05/25 08:54:47;;;;;;;5.18;2.63;;;;;;;;;;5033613;28;20053;-85
2022/05/25 08:57:43;;;;;;;4.72;2.83;;;;;;;;;;5035145;28;20110;-85
2022/05/25 09:00:13;;;;;;;2.13;1.40;;;;;;;;;;5033929;28;20414;-85
2022/05/25 09:02:39;;;;;;;2.65;1.60;;;;;;;;;;5035001;28;20045;-85
2022/05/25 09:05:13;;;;;;;2.25;1.67;;;;;;;;;;5033674;28;20048;-85
2022/05/25 09:07:53;;;;;;;2.92;1.77;;;;;;;;;;5035246;28;20033;-85
2022/05/25 09:10:19;;;;;;;2.13;1.50;;;;;;;;;;5034549;28;20461;-85
2022/05/25 09:12:49;;;;;;;3.83;1.88;;;;;;;;;;5033928;28;20041;-85
2022/05/25 09:15:32;;;;;;;2.70;1.80;;;;;;;;;;5034540;28;20084;-85
2022/05/25 09:18:11;;;;;;;3.75;1.80;;;;;;;;;;5035251;28;20393;-85
2022/05/25 09:20:44;;;;;;;2.97;1.50;;;;;;;;;;5033390;28;20048;-85
2022/05/25 09:23:12;;;;;;;;;;;;;;;;;;5035768;28;20131;-83
2022/05/25 09:25:38;;;;;;;1.85;1.42;;;;;;;;;;5032894;28;19920;-86
2022/05/25 09:28:16;;;;;;;1.90;1.27;;;;;;;;;;5033352;28;20030;-86
2022/05/25 09:30:45;;;;;;;2.47;1.10;;;;;;;;;;5033423;28;20428;-85
2022/05/25 09:33:20;;;;;;;1.92;1.27;;;;;;;;;;5034632;28;20037;-85
2022/05/25 09:35:51;;;;;;;1.27;1.10;;;;;;;;;;5033188;28;20037;-85
2022/05/25 09:38:35;;;;;;;2.03;0.90;;;;;;;;;;5034730;28;20037;-85
2022/05/25 09:41:06;;;;;;;5.30;1.10;;;;;;;;;;5034851;28;20043;-85
2022/05/25 09:43:32;;;;;;;2.08;0.88;;;;;;;;;;5016576;28;20140;-85
2022/05/25 09:46:07;;;;;;;1.15;0.73;;;;;;;;;;5033110;28;20053;-86
2022/05/25 09:48:55;;;;;;;1.98;0.80;;;;;;;;;;5034458;28;20037;-86
2022/05/25 09:51:43;;;;;;;1.45;0.70;;;;;;;;;;5033501;28;20090;-85
2022/05/25 09:54:27;;;;;;;1.17;0.95;;;;;;;;;;5032157;28;20046;-86
2022/05/25 09:57:13;;;;;;;0.70;0.70;;;;;;;;;;5033747;28;20053;-85
2022/05/25 10:00:09;;;;;;;1.08;0.70;;;;;;;;;;5033186;28;20494;-86
2022/05/25 10:02:51;;;;;;;1.55;0.90;;;;;;;;;;5011679;28;20042;-85
2022/05/25 10:05:27;;;;;;;1.08;0.60;;;;;;;;;;5033493;28;20494;-85
2022/05/25 10:07:53;;;;;;;1.42;0.70;;;;;;;;;;5033509;28;20112;-86
2022/05/25 10:10:43;;;;;;;2.10;0.70;;;;;;;;;;5034157;28;20073;-86
2022/05/25 10:13:20;;;;;;;1.60;0.77;;;;;;;;;;5033296;28;20460;-86
2022/05/25 10:15:51;;;;;;;1.75;0.88;;;;;;;;;;5032975;28;20029;-85
2022/05/25 10:18:34;;;;;;;0.90;0.73;;;;;;;;;;5032632;28;20037;-86
2022/05/25 10:21:01;;;;;;;1.25;0.80;;;;;;;;;;5015927;28;20140;-85
2022/05/25 10:23:27;;;;;;;1.63;0.85;;;;;;;;;;5032552;28;20041;-85
2022/05/25 10:25:56;;;;;;;1.85;0.75;;;;;;;;;;5032638;28;20124;-86
2022/05/25 10:28:23;;;;;;;0.82;0.60;;;;;;;;;;5032045;28;20033;-86
2022/05/25 10:37:06;;;;;;;1.50;0.70;;;;;;;;;;5022305;28;20041;-86
2022/05/25 10:39:32;;;;;;;1.73;0.70;;;;;;;;;;5035194;28;20191;-85
2022/05/25 10:42:19;;;;;;;3.60;0.80;;;;;;;;;;5037998;28;20037;-86
2022/05/25 10:44:50;;;;;;;1.25;0.70;;;;;;;;;;5038439;28;20083;-85
2022/05/25 10:47:49;;;;;;;0.73;0.70;;;;;;;;;;5036491;28;20041;-87
2022/05/25 10:50:36;;;;;;;1.75;1.10;;;;;;;;;;5035213;28;20045;-86
2022/05/25 10:53:06;;;;;;;2.22;1.10;;;;;;;;;;5035492;28;20029;-85
2022/05/25 10:56:02;;;;;;;1.40;0.80;;;;;;;;;;5036009;28;20041;-87
2022/05/25 10:58:49;;;;;;;1.60;0.90;;;;;;;;;;5039109;28;20030;-86
2022/05/25 11:01:35;;;;;;;1.27;0.70;;;;;;;;;;5038954;28;20040;-86
2022/05/25 11:04:24;;;;;;;2.35;0.90;;;;;;;;;;5039546;28;20037;-86
2022/05/25 11:06:55;;;;;;;2.42;0.80;;;;;;;;;;5042123;28;20041;-85
2022/05/25 11:09:33;;;;;;;1.55;0.93;;;;;;;;;;5040373;28;20041;-86
2022/05/25 11:12:25;;;;;;;1.92;0.93;;;;;;;;;;5042396;28;20060;-85
2022/05/25 11:15:24;;;;;;;0.85;0.70;;;;;;;;;;5041945;28;20048;-86
2022/05/25 11:18:11;;;;;;;2.78;0.80;;;;;;;;;;5037663;28;20462;-86
2022/05/25 11:21:05;;;;;;;0.95;0.73;;;;;;;;;;5018336;28;20540;-85
2022/05/25 11:23:50;;;;;;;1.90;0.70;;;;;;;;;;5036569;28;20409;-86
2022/05/25 11:26:24;;;;;;;1.27;0.60;;;;;;;;;;5039937;28;20041;-86
2022/05/25 11:29:11;;;;;;;0.77;0.50;;;;;;;;;;5038224;28;20625;-85
2022/05/25 11:31:56;;;;;;;1.67;0.70;;;;;;;;;;5038636;28;20546;-85
2022/05/25 11:34:44;;;;;;;1.17;0.70;;;;;;;;;;5039517;28;20048;-85
2022/05/25 11:37:34;;;;;;;1.55;0.70;;;;;;;;;;5037711;28;20033;-85
2022/05/25 11:40:15;;;;;;;1.20;0.70;;;;;;;;;;5037344;28;20126;-85
2022/05/25 11:43:18;;;;;;;1.67;0.80;;;;;;;;;;5036800;28;20037;-85
2022/05/25 11:46:09;;;;;;;1.48;0.70;;;;;;;;;;5037013;28;20044;-85
2022/05/25 11:48:43;;;;;;;1.40;0.68;;;;;;;;;;5039333;28;20037;-84
2022/05/25 11:51:35;;;;;;;0.98;0.65;;;;;;;;;;5017591;28;20087;-84
2022/05/25 11:54:01;;;;;;;0.68;0.50;;;;;;;;;;5037630;28;20037;-85
2022/05/25 11:56:41;;;;;;;1.38;0.50;;;;;;;;;;5037200;28;20041;-85
2022/05/25 11:59:13;;;;;;;0.98;0.65;;;;;;;;;;5039501;28;20037;-85
2022/05/25 12:02:07;;;;;;;1.20;0.80;;;;;;;;;;5020407;28;20037;-85
2022/05/25 12:05:03;;;;;;;1.10;0.60;;;;;;;;;;5037034;28;20451;-85
2022/05/25 12:07:31;;;;;;;0.85;0.57;;;;;;;;;;5036222;28;20490;-85
2022/05/25 12:10:12;;;;;;;0.98;0.70;;;;;;;;;;5033769;28;20046;-85
2022/05/25 12:12:47;;;;;;;1.23;0.60;;;;;;;;;;5035715;28;20482;-85
2022/05/25 12:15:35;;;;;;;0.77;0.50;;;;;;;;;;5035782;28;20045;-84
2022/05/25 12:18:35;;;;;;;3.45;0.60;;;;;;;;;;5034006;28;20033;-85
2022/05/25 12:21:07;;;;;;;1.20;0.80;;;;;;;;;;5028250;28;20037;-85
2022/05/25 12:23:36;;;;;;;0.95;0.52;;;;;;;;;;5039025;28;20464;-85
2022/05/25 12:26:17;;;;;;;1.05;0.60;;;;;;;;;;5032853;28;20029;-84
2022/05/25 12:28:45;;;;;;;1.42;0.68;;;;;;;;;;5033499;28;20033;-84
2022/05/25 12:31:15;;;;;;;0.98;0.60;;;;;;;;;;5034246;28;20037;-85
2022/05/25 12:33:43;;;;;;;0.70;0.70;;;;;;;;;;5037278;28;20025;-85
2022/05/25 12:36:10;;;;;;;1.75;0.70;;;;;;;;;;5032845;28;20045;-84
2022/05/25 12:38:37;;;;;;;1.23;0.60;;;;;;;;;;5032789;28;20029;-84
2022/05/25 12:41:25;;;;;;;1.30;0.60;;;;;;;;;;5032870;28;20106;-84
2022/05/25 12:44:00;;;;;;;0.95;0.60;;;;;;;;;;5032713;28;20040;-84
2022/05/25 12:49:48;;;;;;;0.90;0.70;;;;;;;;;;5033159;28;20109;-84
2022/05/25 12:52:26;;;;;;;1.13;0.60;;;;;;;;;;5016238;28;20132;-84
2022/05/25 12:54:53;;;;;;;0.70;0.70;;;;;;;;;;5033207;28;20037;-84
2022/05/25 12:57:24;;;;;;;1.70;0.57;;;;;;;;;;5033952;28;20396;-85
2022/05/25 12:59:50;;;;;;;2.15;0.70;;;;;;;;;;5036708;28;20083;-85
2022/05/25 13:02:18;;;;;;;2.00;0.90;;;;;;;;;;5036920;28;20044;-85
2022/05/25 13:04:48;;;;;;;0.60;0.60;;;;;;;;;;5035033;28;20060;-85
2022/05/25 13:07:39;;;;;;;0.98;0.57;;;;;;;;;;5034169;28;20041;-84
2022/05/25 13:10:41;;;;;;;0.85;0.60;;;;;;;;;;5033038;28;20037;-84
2022/05/25 13:13:47;;;;;;;0.68;0.52;;;;;;;;;;5031269;28;20379;-84
2022/05/25 13:16:41;;;;;;;2.00;0.60;;;;;;;;;;5031021;28;20490;-84
2022/05/25 13:19:32;;;;;;;2.20;0.80;;;;;;;;;;5033286;28;20136;-85
2022/05/25 13:22:03;;;;;;;0.70;0.70;;;;;;;;;;5032366;28;20116;-84
2022/05/25 13:25:05;;;;;;;1.35;0.60;;;;;;;;;;5032282;28;20033;-84
2022/05/25 13:27:58;;;;;;;1.58;0.70;;;;;;;;;;5031873;28;20120;-85
2022/05/25 13:30:35;;;;;;;1.02;0.63;;;;;;;;;;5036284;28;20044;-85
2022/05/25 13:33:09;;;;;;;0.85;0.70;;;;;;;;;;5035213;28;20068;-86
2022/05/25 13:36:12;;;;;;;1.45;0.60;;;;;;;;;;5035934;28;20092;-86
2022/05/25 13:38:56;;;;;;;1.10;0.60;;;;;;;;;;5035260;28;20396;-85
2022/05/25 13:41:24;;;;;;;0.57;0.50;;;;;;;;;;5033148;28;20029;-85
2022/05/25 13:43:58;;;;;;;1.63;0.50;;;;;;;;;;5036219;28;20049;-84
2022/05/25 13:46:39;;;;;;;2.08;0.60;;;;;;;;;;5034586;28;20034;-85
2022/05/25 13:49:07;;;;;;;0.85;0.50;;;;;;;;;;5035408;28;20179;-85
2022/05/25 13:51:33;;;;;;;1.02;0.60;;;;;;;;;;5033879;28;20034;-85
2022/05/25 13:53:59;;;;;;;0.80;0.60;;;;;;;;;;5034058;28;20045;-85
2022/05/25 13:56:28;;;;;;;2.45;0.77;;;;;;;;;;5035016;28;20033;-86
2022/05/25 13:59:08;;;;;;;0.93;0.52;;;;;;;;;;5033400;28;20045;-87
2022/05/25 14:01:34;;;;;;;0.70;0.60;;;;;;;;;;5034346;28;20098;-85
2022/05/25 14:04:18;;;;;;;0.40;0.40;;;;;;;;;;5035269;28;20037;-85
2022/05/25 14:06:44;;;;;;;1.80;0.63;;;;;;;;;;5036757;28;20029;-85
2022/05/25 14:11:56;;;;;;;1.90;0.50;;;;;;;;;;5037002;28;20560;-85
2022/05/25 14:14:21;;;;;;;0.88;0.50;;;;;;;;;;5038289;28;20057;-86
2022/05/25 14:16:53;;;;;;;2.42;0.52;;;;;;;;;;5042057;28;20163;-86
2022/05/25 14:19:21;;;;;;;1.80;0.40;;;;;;;;;;5041845;28;20044;-86
2022/05/25 14:21:53;;;;;;;0.65;0.30;;;;;;;;;;5042320;28;20107;-86
2022/05/25 14:24:29;;;;;;;0.55;0.40;;;;;;;;;;5024008;28;20041;-85
2022/05/25 14:27:18;;;;;;;0.57;0.40;;;;;;;;;;5042428;28;20444;-86
2022/05/25 14:29:45;;;;;;;0.98;0.60;;;;;;;;;;5041636;28;20025;-85
2022/05/25 14:32:32;;;;;;;3.10;0.40;;;;;;;;;;5040499;28;20051;-85
2022/05/25 14:35:00;;;;;;;1.08;0.50;;;;;;;;;;5039995;28;20037;-86
2022/05/25 14:37:28;;;;;;;1.05;0.50;;;;;;;;;;5041499;28;20048;-86
2022/05/25 14:39:57;;;;;;;1.00;0.50;;;;;;;;;;5040467;28;20391;-85
2022/05/25 14:42:28;;;;;;;1.17;0.55;;;;;;;;;;5040826;28;20124;-85
2022/05/25 14:45:03;;;;;;;1.17;0.55;;;;;;;;;;5041971;28;20041;-86
2022/05/25 14:47:32;;;;;;;0.57;0.50;;;;;;;;;;5041013;28;20030;-85
2022/05/25 14:50:42;;;;;;;0.60;0.40;;;;;;;;;;5041853;28;20034;-86
2022/05/25 14:53:26;;;;;;;0.68;0.60;;;;;;;;;;4997907;28;20533;-86
2022/05/25 14:55:58;;;;;;;0.65;0.43;;;;;;;;;;5038150;28;20064;-85
2022/05/25 14:58:29;;;;;;;0.50;0.50;;;;;;;;;;5038613;28;20033;-86
2022/05/25 15:00:55;;;;;;;4.35;0.80;;;;;;;;;;5038828;28;20102;-86
2022/05/25 15:03:40;;;;;;;1.10;0.70;;;;;;;;;;5038095;28;20112;-85
2022/05/25 15:06:11;;;;;;;1.33;0.60;;;;;;;;;;5039403;28;20095;-85
2022/05/25 15:09:03;;;;;;;0.88;0.50;;;;;;;;;;5038297;28;20179;-85
2022/05/25 15:11:28;;;;;;;2.20;0.75;;;;;;;;;;5038454;28;20049;-86
2022/05/25 15:20:18;;;;;;;0.65;0.45;;;;;;;;;;5041648;28;20048;-85
2022/05/25 15:22:55;;;;;;;0.68;0.50;;;;;;;;;;5036058;28;20120;-86
2022/05/25 15:25:45;;;;;;;1.02;0.60;;;;;;;;;;5035241;28;20597;-85
2022/05/25 15:28:32;;;;;;;0.47;0.47;;;;;;;;;;5036539;28;20038;-85
2022/05/25 15:31:03;;;;;;;0.73;0.60;;;;;;;;;;5036809;28;20045;-85
2022/05/25 15:33:32;;;;;;;0.90;0.60;;;;;;;;;;5036380;28;20041;-85
2022/05/25 15:36:06;;;;;;;2.67;0.60;;;;;;;;;;5035603;28;20037;-85
2022/05/25 15:38:31;;;;;;;;;;;;;;;;;;5036019;28;20049;-85
2022/05/25 15:40:58;;;;;;;0.70;0.50;;;;;;;;;;5037271;28;20004;-85
2022/05/25 15:43:25;;;;;;;0.60;0.60;;;;;;;;;;5037623;28;20064;-86
2022/05/25 15:45:51;;;;;;;0.40;0.32;;;;;;;;;;5040357;28;20470;-87
2022/05/25 15:48:21;;;;;;;1.10;0.60;;;;;;;;;;5038727;28;20056;-86
2022/05/25 15:50:50;;;;;;;2.05;0.47;;;;;;;;;;5041633;28;20041;-86
2022/05/25 15:53:16;;;;;;;2.35;0.73;;;;;;;;;;5041486;28;20021;-87
2022/05/25 15:55:42;;;;;;;0.73;0.50;;;;;;;;;;5041254;28;20063;-86
2022/05/25 15:58:08;;;;;;;1.40;0.70;;;;;;;;;;5040664;28;20478;-87
2022/05/25 16:00:38;;;;;;;1.27;0.70;;;;;;;;;;5039238;28;20038;-86
2022/05/25 16:03:11;;;;;;;1.67;0.60;;;;;;;;;;5040684;28;20037;-86
2022/05/25 16:05:37;;;;;;;0.82;0.50;;;;;;;;;;5039407;28;20033;-86
2022/05/25 16:10:47;;;;;;;2.42;0.60;;;;;;;;;;5041981;28;20044;-86
2022/05/25 16:13:14;;;;;;;1.95;0.70;;;;;;;;;;5041208;28;20021;-86
2022/05/25 16:15:40;;;;;;;0.82;0.60;;;;;;;;;;5038334;28;20043;-86
2022/05/25 16:18:06;;;;;;;1.13;0.55;;;;;;;;;;5038382;28;20029;-86
2022/05/25 16:20:31;;;;;;;2.78;0.50;;;;;;;;;;5038968;28;20113;-86
2022/05/25 16:22:57;;;;;;;1.38;0.50;;;;;;;;;;5038322;28;20033;-85
2022/05/25 16:25:26;;;;;;;0.63;0.63;;;;;;;;;;5039586;28;20026;-87